Time;durP1;ratioP1;P1;durP2;ratioP2;P2;SDS_P1;SDS_P2;PMS_P1;PMS_P2;Temp;Humidity;BMP_temperature;BMP_pressure;BME280_temperature;BME280_humidity;BME280_pressure;Samples;Min_cycle;Max_cycle;Signal;HPM_P1;HPM_P2
2021/05/12 00:02:20;;;;;;;3.10;2.30;;;12.70;99.90;;;;;;5071171;28;21299;-83
2021/05/12 00:04:47;;;;;;;2.33;2.13;;;12.60;99.90;;;;;;5071091;28;20778;-82
2021/05/12 00:07:14;;;;;;;2.50;2.40;;;12.60;99.90;;;;;;5070920;28;21016;-83
2021/05/12 00:09:40;;;;;;;2.80;2.60;;;12.60;99.90;;;;;;5071093;28;20683;-83
2021/05/12 00:12:08;;;;;;;3.00;2.80;;;12.50;99.90;;;;;;5071123;28;20624;-82
2021/05/12 00:14:36;;;;;;;2.67;2.47;;;12.60;99.90;;;;;;5070872;28;20630;-83
2021/05/12 00:17:03;;;;;;;2.67;2.47;;;12.70;99.90;;;;;;5071465;28;20634;-82
2021/05/12 00:19:30;;;;;;;2.47;2.23;;;12.50;99.90;;;;;;5070202;28;20628;-83
2021/05/12 00:22:03;;;;;;;3.23;3.03;;;12.40;99.90;;;;;;5071270;28;20621;-83
2021/05/12 00:24:30;;;;;;;3.10;2.80;;;12.40;99.90;;;;;;5070911;28;20668;-82
2021/05/12 00:26:56;;;;;;;3.17;2.53;;;12.40;99.90;;;;;;5070116;28;21026;-83
2021/05/12 00:29:23;;;;;;;3.47;3.17;;;12.30;99.90;;;;;;5070052;28;20703;-82
2021/05/12 00:31:49;;;;;;;4.27;3.07;;;12.30;99.90;;;;;;5071170;28;21178;-82
2021/05/12 00:34:16;;;;;;;2.73;2.53;;;12.30;99.90;;;;;;5071150;28;20622;-83
2021/05/12 00:36:43;;;;;;;3.60;3.27;;;12.20;99.90;;;;;;5070899;28;21197;-82
2021/05/12 00:39:10;;;;;;;3.10;2.90;;;12.20;99.90;;;;;;5070058;28;20626;-82
2021/05/12 00:41:38;;;;;;;3.20;2.90;;;12.10;99.90;;;;;;5070797;28;21241;-82
2021/05/12 00:44:06;;;;;;;3.53;2.47;;;12.20;99.90;;;;;;5070528;28;21000;-81
2021/05/12 00:46:33;;;;;;;2.73;2.50;;;12.00;99.90;;;;;;5070211;28;20645;-81
2021/05/12 00:48:59;;;;;;;4.40;2.60;;;11.80;99.90;;;;;;5069073;28;20633;-81
2021/05/12 00:51:27;;;;;;;2.90;2.30;;;11.90;99.90;;;;;;5071209;28;20705;-82
2021/05/12 00:53:53;;;;;;;2.23;2.03;;;12.00;99.90;;;;;;5070370;28;21079;-81
2021/05/12 00:56:19;;;;;;;2.53;2.33;;;11.70;99.90;;;;;;5070423;28;20622;-81
2021/05/12 00:58:47;;;;;;;2.80;2.60;;;11.70;99.90;;;;;;5069774;28;20621;-82
2021/05/12 01:01:13;;;;;;;3.53;1.87;;;11.60;99.90;;;;;;5069764;28;20636;-81
2021/05/12 01:03:41;;;;;;;2.80;2.30;;;11.40;99.90;;;;;;5069426;28;20638;-81
2021/05/12 01:06:21;;;;;;;2.67;2.47;;;11.40;99.90;;;;;;5063325;28;21134;-80
2021/05/12 01:08:48;;;;;;;3.40;2.17;;;11.30;99.90;;;;;;5069406;28;20633;-81
2021/05/12 01:11:17;;;;;;;2.57;2.23;;;11.20;99.90;;;;;;5066986;28;20626;-81
2021/05/12 01:13:45;;;;;;;1.80;1.67;;;11.10;99.90;;;;;;5063611;28;20617;-81
2021/05/12 01:16:15;;;;;;;1.73;1.63;;;11.00;99.90;;;;;;5067321;28;20625;-81
2021/05/12 01:18:43;;;;;;;2.23;2.13;;;10.90;99.90;;;;;;5051631;28;21219;-81
2021/05/12 01:21:14;;;;;;;2.23;2.10;;;11.00;99.90;;;;;;5070504;28;21202;-81
2021/05/12 01:23:44;;;;;;;4.15;2.00;;;11.10;99.90;;;;;;5069916;28;20621;-81
2021/05/12 01:26:13;;;;;;;2.70;1.97;;;11.10;99.90;;;;;;5068141;28;20207;-81
2021/05/12 01:28:43;;;;;;;4.50;1.53;;;11.10;99.90;;;;;;5069458;28;20644;-81
2021/05/12 01:31:13;;;;;;;2.97;2.23;;;11.10;99.90;;;;;;5069599;28;20626;-80
2021/05/12 01:33:43;;;;;;;2.70;1.90;;;11.10;99.90;;;;;;5069583;28;20992;-80
2021/05/12 01:36:12;;;;;;;2.07;1.87;;;11.30;99.90;;;;;;5069734;28;20629;-81
2021/05/12 01:38:43;;;;;;;2.10;2.00;;;11.20;99.90;;;;;;5069080;28;20653;-81
2021/05/12 01:41:10;;;;;;;2.00;1.90;;;11.20;99.90;;;;;;5069437;28;20729;-80
2021/05/12 01:43:39;;;;;;;2.20;2.00;;;11.10;99.90;;;;;;5069741;28;20621;-80
2021/05/12 01:46:06;;;;;;;2.10;1.63;;;11.10;99.90;;;;;;5068828;28;20814;-80
2021/05/12 01:48:34;;;;;;;2.07;1.90;;;11.20;99.90;;;;;;5068851;28;20621;-80
2021/05/12 01:51:02;;;;;;;3.67;1.60;;;11.20;99.90;;;;;;5069920;28;20667;-80
2021/05/12 01:53:30;;;;;;;2.30;2.20;;;11.00;99.90;;;;;;5070254;28;20617;-80
2021/05/12 01:55:59;;;;;;;2.60;2.10;;;10.90;99.90;;;;;;5069568;28;20716;-80
2021/05/12 01:58:26;;;;;;;1.70;1.60;;;10.90;99.90;;;;;;5069603;28;20620;-80
2021/05/12 02:00:55;;;;;;;2.57;2.20;;;11.00;99.90;;;;;;5069397;28;20671;-80
2021/05/12 02:03:23;;;;;;;2.73;2.40;;;10.90;99.90;;;;;;5069541;28;21283;-80
2021/05/12 02:05:54;;;;;;;3.20;2.90;;;10.80;99.90;;;;;;5068700;28;21197;-79
2021/05/12 02:08:23;;;;;;;2.37;2.20;;;10.80;99.90;;;;;;5069598;28;20601;-80
2021/05/12 02:10:53;;;;;;;3.77;2.77;;;10.80;99.90;;;;;;5069070;28;20629;-80
2021/05/12 02:13:25;;;;;;;3.67;3.37;;;10.90;99.90;;;;;;5069460;28;20644;-79
2021/05/12 02:15:54;;;;;;;3.70;2.70;;;10.90;99.90;;;;;;5063823;28;20685;-80
2021/05/12 02:18:22;;;;;;;3.93;3.63;;;10.80;99.90;;;;;;5066600;28;20638;-80
2021/05/12 02:20:50;;;;;;;3.40;3.10;;;10.80;99.90;;;;;;5068257;28;20975;-80
2021/05/12 02:23:18;;;;;;;4.90;2.97;;;10.80;99.90;;;;;;5069361;28;20622;-80
2021/05/12 02:25:45;;;;;;;3.50;3.20;;;10.70;99.90;;;;;;5049602;28;20653;-80
2021/05/12 02:28:12;;;;;;;3.13;2.53;;;10.80;99.90;;;;;;5052331;28;20628;-80
2021/05/12 02:30:41;;;;;;;3.47;3.17;;;10.80;99.90;;;;;;5068486;28;20629;-80
2021/05/12 02:33:08;;;;;;;3.00;2.70;;;10.70;99.90;;;;;;5068319;28;21399;-80
2021/05/12 02:35:35;;;;;;;2.73;2.53;;;10.70;99.90;;;;;;5069252;28;20617;-81
2021/05/12 02:38:02;;;;;;;4.37;3.20;;;10.80;99.90;;;;;;5069146;28;20613;-80
2021/05/12 02:40:29;;;;;;;4.10;3.00;;;10.60;99.90;;;;;;5068685;28;20644;-80
2021/05/12 02:42:58;;;;;;;4.03;3.63;;;10.80;99.90;;;;;;5069392;28;21295;-79
2021/05/12 02:45:24;;;;;;;3.50;2.53;;;10.80;99.90;;;;;;5068238;28;20645;-80
2021/05/12 02:47:58;;;;;;;3.60;3.30;;;10.60;99.90;;;;;;5069183;28;20982;-80
2021/05/12 02:50:26;;;;;;;3.20;2.93;;;10.60;99.90;;;;;;5068675;28;21194;-80
2021/05/12 02:52:53;;;;;;;3.60;3.30;;;10.70;99.90;;;;;;5068931;28;20749;-79
2021/05/12 02:55:19;;;;;;;4.18;3.83;;;10.70;99.90;;;;;;5068819;28;20659;-79
2021/05/12 02:57:46;;;;;;;3.60;3.30;;;10.70;99.90;;;;;;5068782;28;20225;-80
2021/05/12 03:00:14;;;;;;;4.18;3.78;;;10.70;99.90;;;;;;5068203;28;20610;-79
2021/05/12 03:02:41;;;;;;;4.30;3.90;;;10.70;99.90;;;;;;5068483;28;20192;-80
2021/05/12 03:05:10;;;;;;;4.00;3.70;;;10.60;99.90;;;;;;5069005;28;21080;-79
2021/05/12 03:07:36;;;;;;;3.53;3.20;;;10.50;99.90;;;;;;5069079;28;20614;-80
2021/05/12 03:10:05;;;;;;;3.80;3.33;;;10.60;99.90;;;;;;5068128;28;20702;-80
2021/05/12 03:12:32;;;;;;;7.13;3.60;;;10.60;99.90;;;;;;5071587;28;20613;-79
2021/05/12 03:14:58;;;;;;;4.43;3.40;;;10.60;99.90;;;;;;5071912;28;20614;-79
2021/05/12 03:17:25;;;;;;;5.80;3.80;;;10.60;99.90;;;;;;5072793;28;20657;-80
2021/05/12 03:19:51;;;;;;;4.30;3.40;;;10.50;99.90;;;;;;5071849;28;20716;-80
2021/05/12 03:22:19;;;;;;;3.90;3.60;;;10.60;99.90;;;;;;5073017;28;20660;-80
2021/05/12 03:24:45;;;;;;;4.00;3.63;;;10.70;99.90;;;;;;5072333;28;20530;-80
2021/05/12 03:27:12;;;;;;;5.47;4.60;;;10.80;99.90;;;;;;5063197;28;20633;-80
2021/05/12 03:29:38;;;;;;;5.60;4.67;;;10.90;99.90;;;;;;5070977;28;20671;-80
2021/05/12 03:32:05;;;;;;;5.80;5.27;;;10.90;99.90;;;;;;5072673;28;20613;-79
2021/05/12 03:34:32;;;;;;;7.87;5.60;;;10.90;99.90;;;;;;5072013;28;20621;-79
2021/05/12 03:36:58;;;;;;;9.37;7.27;;;11.00;99.90;;;;;;5071855;28;20610;-80
2021/05/12 03:39:25;;;;;;;6.50;5.90;;;10.80;99.90;;;;;;5070792;28;20652;-80
2021/05/12 03:41:52;;;;;;;12.87;7.40;;;10.80;99.90;;;;;;5072515;28;20625;-79
2021/05/12 03:44:18;;;;;;;7.90;5.60;;;10.70;99.90;;;;;;5071277;28;21178;-79
2021/05/12 03:46:44;;;;;;;8.60;6.90;;;10.70;99.90;;;;;;5072068;28;20632;-79
2021/05/12 03:49:11;;;;;;;8.17;6.10;;;10.80;99.90;;;;;;5071086;28;20668;-79
2021/05/12 03:51:37;;;;;;;9.03;5.80;;;10.70;99.90;;;;;;5072155;28;20621;-79
2021/05/12 03:54:04;;;;;;;6.90;6.10;;;10.80;99.90;;;;;;5071421;28;20617;-79
2021/05/12 03:56:31;;;;;;;9.60;6.90;;;10.80;99.90;;;;;;5071952;28;20645;-80
2021/05/12 03:58:58;;;;;;;7.00;6.23;;;10.70;99.90;;;;;;5071031;28;20657;-79
2021/05/12 04:01:24;;;;;;;9.47;5.93;;;10.90;99.90;;;;;;5071993;28;20621;-79
2021/05/12 04:03:50;;;;;;;9.47;6.97;;;10.90;99.90;;;;;;5071123;28;20657;-79
2021/05/12 04:06:17;;;;;;;8.60;7.70;;;10.90;99.90;;;;;;5071594;28;20657;-80
2021/05/12 04:08:43;;;;;;;12.30;7.43;;;10.90;99.90;;;;;;5069942;28;21000;-79
2021/05/12 04:11:10;;;;;;;8.40;7.50;;;11.00;99.90;;;;;;5071442;28;20653;-80
2021/05/12 04:13:37;;;;;;;7.53;6.80;;;11.00;99.90;;;;;;5071387;28;20614;-80
2021/05/12 04:16:04;;;;;;;8.20;7.40;;;11.00;99.90;;;;;;5071311;28;20720;-79
2021/05/12 04:18:30;;;;;;;9.27;7.10;;;11.10;99.90;;;;;;5070862;28;20617;-80
2021/05/12 04:20:57;;;;;;;9.20;7.10;;;11.10;99.90;;;;;;5071740;28;21048;-80
2021/05/12 04:23:23;;;;;;;11.87;7.80;;;11.00;99.90;;;;;;5070458;28;20625;-79
2021/05/12 04:25:50;;;;;;;11.63;6.27;;;11.10;99.90;;;;;;5070081;28;20665;-80
2021/05/12 04:28:16;;;;;;;8.80;6.37;;;11.10;99.90;;;;;;5070942;28;20668;-80
2021/05/12 04:30:44;;;;;;;6.57;5.80;;;10.90;99.90;;;;;;5070757;28;20663;-80
2021/05/12 04:33:10;;;;;;;8.60;6.13;;;11.00;99.90;;;;;;5071119;28;20666;-79
2021/05/12 04:35:37;;;;;;;7.27;6.07;;;11.00;99.90;;;;;;5068579;28;21097;-79
2021/05/12 04:38:03;;;;;;;6.80;6.20;;;10.80;99.90;;;;;;5066376;28;20674;-79
2021/05/12 04:40:29;;;;;;;9.87;6.60;;;11.00;99.90;;;;;;5070172;28;20636;-79
2021/05/12 04:42:56;;;;;;;7.73;6.90;;;11.00;99.90;;;;;;5071469;28;21076;-79
2021/05/12 04:45:22;;;;;;;8.13;6.30;;;10.90;99.90;;;;;;5070439;28;20637;-79
2021/05/12 04:47:56;;;;;;;6.47;5.50;;;11.00;99.90;;;;;;5071100;28;21076;-80
2021/05/12 04:50:25;;;;;;;11.80;6.30;;;10.80;99.90;;;;;;5069306;28;20633;-80
2021/05/12 04:52:51;;;;;;;7.72;6.80;;;10.70;99.90;;;;;;5070461;28;20657;-79
2021/05/12 04:55:18;;;;;;;7.10;5.80;;;10.80;99.90;;;;;;5070820;28;20289;-79
2021/05/12 04:57:44;;;;;;;6.90;6.20;;;10.90;99.90;;;;;;5070395;28;20613;-79
2021/05/12 05:00:14;;;;;;;7.20;5.90;;;11.10;99.90;;;;;;5068947;28;20610;-79
2021/05/12 05:02:41;;;;;;;9.03;6.63;;;11.10;99.90;;;;;;5070477;28;20636;-79
2021/05/12 05:05:11;;;;;;;7.20;6.47;;;11.10;99.90;;;;;;5070074;28;20676;-79
2021/05/12 05:07:37;;;;;;;7.30;6.13;;;11.20;99.90;;;;;;5070181;28;20716;-79
2021/05/12 05:10:05;;;;;;;8.50;6.07;;;11.20;99.90;;;;;;5069774;28;20613;-79
2021/05/12 05:12:31;;;;;;;6.30;5.57;;;11.20;99.90;;;;;;5069807;28;20629;-79
2021/05/12 05:14:58;;;;;;;6.47;5.43;;;11.20;99.90;;;;;;5069977;28;20621;-79
2021/05/12 05:17:26;;;;;;;8.53;7.00;;;11.00;99.90;;;;;;5068844;28;20637;-78
2021/05/12 05:19:53;;;;;;;7.53;6.43;;;11.10;99.90;;;;;;5069678;28;20621;-79
2021/05/12 05:22:21;;;;;;;14.73;6.07;;;11.20;99.90;;;;;;5069750;28;21075;-79
2021/05/12 05:24:48;;;;;;;7.93;5.87;;;11.10;99.90;;;;;;5068009;28;20665;-79
2021/05/12 05:27:15;;;;;;;7.67;5.53;;;11.20;99.90;;;;;;5070232;28;20613;-79
2021/05/12 05:29:42;;;;;;;9.83;5.93;;;11.40;99.90;;;;;;5067954;28;20629;-79
2021/05/12 05:32:08;;;;;;;7.00;5.60;;;11.30;99.90;;;;;;5069248;28;20645;-80
2021/05/12 05:34:35;;;;;;;8.60;6.10;;;11.30;99.90;;;;;;5069691;28;20640;-81
2021/05/12 05:37:01;;;;;;;6.03;5.43;;;11.30;99.90;;;;;;5069543;28;20718;-80
2021/05/12 05:39:35;;;;;;;7.10;5.63;;;11.30;99.90;;;;;;5069207;28;20610;-80
2021/05/12 05:42:02;;;;;;;9.60;6.03;;;11.20;99.90;;;;;;5069742;28;20617;-80
2021/05/12 05:44:28;;;;;;;7.33;5.70;;;11.30;99.90;;;;;;5068868;28;20692;-80
2021/05/12 05:46:56;;;;;;;9.50;6.70;;;11.20;99.90;;;;;;5063182;28;20739;-81
2021/05/12 05:49:22;;;;;;;6.40;5.80;;;11.30;99.90;;;;;;5069033;28;20652;-80
2021/05/12 05:51:49;;;;;;;8.70;5.30;;;11.30;99.90;;;;;;5069979;28;20649;-79
2021/05/12 05:54:15;;;;;;;6.67;5.90;;;11.40;99.90;;;;;;5069731;28;20629;-79
2021/05/12 05:56:42;;;;;;;5.20;4.63;;;11.30;99.90;;;;;;5060963;28;20739;-79
2021/05/12 05:59:10;;;;;;;6.63;4.83;;;11.20;99.90;;;;;;5067101;28;20613;-79
2021/05/12 06:01:36;;;;;;;10.40;5.00;;;11.30;99.90;;;;;;5067902;28;20625;-79
2021/05/12 06:04:03;;;;;;;5.10;4.30;;;11.50;99.90;;;;;;5068419;28;20655;-79
2021/05/12 06:06:29;;;;;;;5.63;4.80;;;11.40;99.90;;;;;;5067991;28;20657;-80
2021/05/12 06:08:56;;;;;;;7.10;5.00;;;11.50;99.90;;;;;;5068147;28;20632;-80
2021/05/12 06:11:22;;;;;;;5.17;4.73;;;11.50;99.90;;;;;;5068820;28;21189;-80
2021/05/12 06:13:50;;;;;;;4.73;4.03;;;11.50;99.90;;;;;;5069273;28;20606;-80
2021/05/12 06:16:17;;;;;;;5.20;4.50;;;11.50;99.90;;;;;;5062342;28;20697;-80
2021/05/12 06:18:45;;;;;;;5.03;4.27;;;11.50;99.90;;;;;;5067995;28;20617;-79
2021/05/12 06:21:11;;;;;;;4.93;3.97;;;11.50;99.90;;;;;;5064948;28;20662;-80
2021/05/12 06:23:39;;;;;;;5.80;5.20;;;11.50;99.90;;;;;;5066809;28;20621;-80
2021/05/12 06:26:13;;;;;;;5.67;4.07;;;11.30;99.90;;;;;;5069118;28;20657;-79
2021/05/12 06:28:41;;;;;;;5.03;3.63;;;11.20;99.90;;;;;;5067919;28;20629;-81
2021/05/12 06:31:08;;;;;;;6.30;4.73;;;11.50;99.90;;;;;;5069234;28;20605;-80
2021/05/12 06:33:35;;;;;;;4.40;4.00;;;11.50;99.90;;;;;;5068787;28;20621;-80
2021/05/12 06:36:02;;;;;;;4.37;3.97;;;11.50;99.90;;;;;;5069746;28;20720;-80
2021/05/12 06:38:28;;;;;;;5.00;4.37;;;11.60;99.90;;;;;;5069120;28;20973;-80
2021/05/12 06:40:55;;;;;;;5.83;4.20;;;11.50;99.90;;;;;;5068311;28;20711;-80
2021/05/12 06:43:21;;;;;;;4.57;4.23;;;11.40;99.90;;;;;;5069265;28;20733;-80
2021/05/12 06:45:48;;;;;;;7.53;3.80;;;11.30;99.90;;;;;;5069285;28;20661;-79
2021/05/12 06:48:16;;;;;;;5.40;4.17;;;11.40;99.90;;;;;;5072749;28;20629;-80
2021/05/12 06:50:43;;;;;;;5.17;4.60;;;11.60;99.90;;;;;;5072435;28;20620;-80
2021/05/12 06:53:10;;;;;;;4.00;3.00;;;11.60;99.90;;;;;;5072471;28;20625;-80
2021/05/12 06:55:37;;;;;;;5.60;4.63;;;11.70;99.90;;;;;;5073223;28;21083;-80
2021/05/12 06:58:05;;;;;;;6.80;4.40;;;11.80;99.90;;;;;;5072800;28;20997;-80
2021/05/12 07:00:32;;;;;;;6.63;3.80;;;11.70;99.90;;;;;;5072454;28;20641;-79
2021/05/12 07:02:59;;;;;;;4.50;4.10;;;11.70;99.90;;;;;;5072242;28;20632;-80
2021/05/12 07:05:26;;;;;;;5.10;4.13;;;11.60;99.90;;;;;;5073314;28;21041;-80
2021/05/12 07:07:52;;;;;;;7.03;3.73;;;11.60;99.90;;;;;;5072085;28;20649;-80
2021/05/12 07:10:19;;;;;;;4.30;3.93;;;11.60;99.90;;;;;;5072661;28;21443;-79
2021/05/12 07:12:46;;;;;;;4.33;3.93;;;11.50;99.90;;;;;;5072809;28;20609;-79
2021/05/12 07:15:13;;;;;;;4.13;3.73;;;11.40;99.90;;;;;;5072751;28;20626;-79
2021/05/12 07:17:40;;;;;;;6.10;4.73;;;11.40;99.90;;;;;;5072288;28;20629;-80
2021/05/12 07:20:08;;;;;;;9.03;5.27;;;11.40;99.90;;;;;;5072402;28;20625;-80
2021/05/12 07:22:35;;;;;;;5.93;4.13;;;11.40;99.90;;;;;;5070072;28;20610;-80
2021/05/12 07:25:02;;;;;;;5.27;4.53;;;11.50;99.90;;;;;;5068003;28;20676;-79
2021/05/12 07:27:28;;;;;;;4.53;4.13;;;11.40;99.90;;;;;;5072462;28;21162;-80
2021/05/12 07:29:55;;;;;;;3.80;3.50;;;11.50;99.90;;;;;;5071957;28;20640;-80
2021/05/12 07:32:22;;;;;;;5.33;4.23;;;11.40;99.90;;;;;;5070080;28;20678;-80
2021/05/12 07:34:51;;;;;;;3.60;3.30;;;11.50;99.90;;;;;;5051828;28;20621;-79
2021/05/12 07:37:18;;;;;;;5.60;3.27;;;11.40;99.90;;;;;;5065094;28;20625;-79
2021/05/12 07:39:46;;;;;;;6.53;3.90;;;11.50;99.90;;;;;;5071116;28;20626;-79
2021/05/12 07:42:14;;;;;;;4.07;3.67;;;11.30;99.90;;;;;;5071861;28;21161;-79
2021/05/12 07:44:42;;;;;;;5.53;4.17;;;11.30;99.90;;;;;;5072234;28;20716;-79
2021/05/12 07:47:09;;;;;;;4.10;3.70;;;11.20;99.90;;;;;;5072549;28;21026;-80
2021/05/12 07:49:37;;;;;;;5.37;4.93;;;11.20;99.90;;;;;;5071214;28;20627;-80
2021/05/12 07:52:05;;;;;;;8.20;5.10;;;11.20;99.90;;;;;;5072053;28;20633;-80
2021/05/12 07:54:32;;;;;;;5.30;4.47;;;11.40;99.90;;;;;;5072273;28;20617;-80
2021/05/12 07:56:59;;;;;;;4.30;3.90;;;11.50;99.90;;;;;;5071672;28;20724;-80
2021/05/12 07:59:25;;;;;;;4.23;3.83;;;11.60;99.90;;;;;;5071470;28;20624;-80
2021/05/12 08:01:52;;;;;;;4.10;3.70;;;11.70;99.90;;;;;;5071564;28;20763;-79
2021/05/12 08:04:18;;;;;;;5.37;4.20;;;11.40;99.90;;;;;;5071121;28;20645;-80
2021/05/12 08:06:45;;;;;;;4.33;3.93;;;11.30;99.90;;;;;;5071461;28;20672;-80
2021/05/12 08:09:11;;;;;;;7.43;4.60;;;11.30;99.90;;;;;;5070725;28;20632;-80
2021/05/12 08:11:38;;;;;;;5.70;4.57;;;11.20;99.90;;;;;;5071528;28;20623;-79
2021/05/12 08:14:05;;;;;;;3.93;3.60;;;11.20;99.90;;;;;;5070996;28;20609;-79
2021/05/12 08:16:32;;;;;;;4.60;4.23;;;11.40;99.90;;;;;;5070773;28;20625;-80
2021/05/12 08:18:58;;;;;;;4.50;4.10;;;11.60;99.90;;;;;;5070345;28;20649;-79
2021/05/12 08:21:25;;;;;;;5.50;3.90;;;11.40;99.90;;;;;;5070497;28;21173;-79
2021/05/12 08:23:53;;;;;;;4.37;3.80;;;11.60;99.90;;;;;;5071135;28;20989;-79
2021/05/12 08:26:19;;;;;;;3.97;3.60;;;11.70;99.90;;;;;;5071613;28;20661;-79
2021/05/12 08:28:46;;;;;;;5.30;4.37;;;11.70;99.90;;;;;;5070314;28;20637;-79
2021/05/12 08:31:14;;;;;;;4.20;3.10;;;11.90;99.90;;;;;;5070902;28;20628;-79
2021/05/12 08:33:41;;;;;;;4.37;3.87;;;11.70;99.90;;;;;;5071111;28;20626;-80
2021/05/12 08:36:08;;;;;;;4.60;4.20;;;11.60;99.90;;;;;;5071235;28;20618;-79
2021/05/12 08:38:37;;;;;;;5.97;3.40;;;11.50;99.90;;;;;;5070165;28;20625;-79
2021/05/12 08:41:04;;;;;;;3.60;3.30;;;11.40;99.90;;;;;;5065170;28;21100;-80
2021/05/12 08:43:31;;;;;;;6.93;3.87;;;11.40;99.90;;;;;;5070250;28;20986;-79
2021/05/12 08:45:58;;;;;;;3.60;3.30;;;11.50;99.90;;;;;;5069446;28;20668;-80
2021/05/12 08:48:26;;;;;;;11.30;3.70;;;11.40;99.90;;;;;;5070142;28;20613;-80
2021/05/12 08:50:53;;;;;;;4.87;3.90;;;11.50;99.90;;;;;;5070384;28;20634;-79
2021/05/12 08:53:20;;;;;;;4.10;3.80;;;11.60;99.90;;;;;;5071054;28;20629;-80
2021/05/12 08:55:46;;;;;;;3.07;2.87;;;11.50;99.90;;;;;;5069878;28;20661;-79
2021/05/12 08:58:13;;;;;;;7.27;3.80;;;11.80;99.90;;;;;;5070084;28;20716;-80
2021/05/12 09:00:41;;;;;;;5.00;3.87;;;11.40;99.90;;;;;;5071340;28;20682;-79
2021/05/12 09:03:08;;;;;;;4.00;3.70;;;11.50;99.90;;;;;;5071684;28;20641;-79
2021/05/12 09:05:36;;;;;;;5.60;4.50;;;11.50;99.90;;;;;;5071736;28;20649;-80
2021/05/12 09:08:03;;;;;;;3.20;3.00;;;11.60;99.90;;;;;;5070733;28;20656;-80
2021/05/12 09:10:30;;;;;;;4.43;3.90;;;11.50;99.90;;;;;;5068655;28;20653;-79
2021/05/12 09:12:59;;;;;;;4.13;3.27;;;11.70;99.90;;;;;;5071369;28;20631;-79
2021/05/12 09:15:27;;;;;;;3.97;3.67;;;11.80;99.90;;;;;;5071785;28;20810;-79
2021/05/12 09:17:58;;;;;;;4.17;3.80;;;11.80;99.90;;;;;;5071834;28;20701;-79
2021/05/12 09:20:39;;;;;;;8.30;4.10;;;11.70;99.90;;;;;;5071681;28;20656;-79
2021/05/12 09:23:11;;;;;;;4.83;3.90;;;11.90;99.90;;;;;;5070847;28;20676;-79
2021/05/12 09:25:39;;;;;;;4.03;3.10;;;12.00;99.90;;;;;;5067060;28;20740;-79
2021/05/12 09:28:11;;;;;;;4.70;3.13;;;11.80;99.90;;;;;;5070223;28;20644;-79
2021/05/12 09:30:38;;;;;;;3.70;3.40;;;12.00;99.90;;;;;;5071157;28;21154;-80
2021/05/12 09:33:05;;;;;;;4.73;3.13;;;11.90;99.90;;;;;;5070726;28;20944;-80
2021/05/12 09:35:33;;;;;;;4.00;3.00;;;11.90;99.90;;;;;;5071014;28;20633;-80
2021/05/12 09:38:01;;;;;;;4.20;2.77;;;12.10;99.90;;;;;;5070198;28;20625;-80
2021/05/12 09:40:27;;;;;;;3.50;3.20;;;12.40;99.90;;;;;;5071312;28;20614;-79
2021/05/12 09:42:59;;;;;;;4.50;3.10;;;12.20;99.00;;;;;;5071127;28;20629;-79
2021/05/12 09:45:26;;;;;;;4.77;4.33;;;12.30;99.50;;;;;;5071237;28;21272;-80
2021/05/12 09:47:57;;;;;;;4.77;3.33;;;12.10;99.90;;;;;;5065674;28;20628;-79
2021/05/12 09:50:25;;;;;;;3.60;3.30;;;12.10;99.90;;;;;;5070143;28;20617;-80
2021/05/12 09:52:52;;;;;;;5.13;3.37;;;12.20;99.90;;;;;;5065246;28;20644;-80
2021/05/12 09:55:20;;;;;;;3.60;3.30;;;12.20;99.90;;;;;;5070762;28;20618;-80
2021/05/12 09:58:03;;;;;;;3.57;3.27;;;12.30;99.90;;;;;;5069893;28;20648;-79
2021/05/12 10:00:32;;;;;;;3.50;3.20;;;12.30;99.90;;;;;;5069399;28;20624;-80
2021/05/12 10:02:59;;;;;;;3.43;3.23;;;12.10;99.50;;;;;;5069972;28;20652;-79
2021/05/12 10:05:26;;;;;;;5.43;3.73;;;12.10;99.50;;;;;;5069824;28;21055;-79
2021/05/12 10:07:53;;;;;;;3.50;3.20;;;12.20;99.90;;;;;;5067592;28;21212;-79
2021/05/12 10:10:38;;;;;;;3.80;3.50;;;12.20;99.90;;;;;;5070750;28;20617;-79
2021/05/12 10:13:04;;;;;;;4.07;3.50;;;12.10;99.50;;;;;;5068955;28;20614;-79
2021/05/12 10:15:31;;;;;;;6.03;3.40;;;12.20;99.20;;;;;;5069695;28;20625;-79
2021/05/12 10:17:58;;;;;;;4.73;3.53;;;12.20;99.00;;;;;;5069049;28;20629;-80
2021/05/12 10:20:25;;;;;;;5.53;4.90;;;12.10;99.00;;;;;;5070908;28;20621;-79
2021/05/12 10:22:53;;;;;;;5.20;3.37;;;12.10;99.20;;;;;;5074365;28;20620;-79
2021/05/12 10:25:19;;;;;;;6.73;4.23;;;12.10;98.90;;;;;;5075169;28;20685;-80
2021/05/12 10:27:49;;;;;;;6.13;3.33;;;11.90;99.70;;;;;;5075078;28;20959;-80
2021/05/12 10:30:16;;;;;;;4.17;3.70;;;12.10;99.90;;;;;;5073874;28;20613;-79
2021/05/12 10:32:48;;;;;;;3.97;3.40;;;12.10;99.90;;;;;;5072079;28;20637;-80
2021/05/12 10:35:15;;;;;;;3.50;3.27;;;12.10;99.20;;;;;;5073099;28;20618;-80
2021/05/12 10:37:53;;;;;;;3.77;3.47;;;12.00;99.60;;;;;;5075318;28;20620;-80
2021/05/12 10:40:21;;;;;;;3.60;3.20;;;12.10;99.10;;;;;;5072631;28;20837;-79
2021/05/12 10:43:01;;;;;;;3.57;3.27;;;12.20;99.10;;;;;;5075771;28;20613;-80
2021/05/12 10:45:50;;;;;;;5.50;4.00;;;12.20;98.90;;;;;;5075462;28;20645;-79
2021/05/12 10:48:31;;;;;;;7.87;4.23;;;12.30;99.30;;;;;;5075218;28;20621;-79
2021/05/12 10:51:00;;;;;;;10.40;3.97;;;12.50;98.90;;;;;;5074982;28;20621;-79
2021/05/12 10:53:28;;;;;;;3.63;3.27;;;12.70;98.70;;;;;;5076851;28;21114;-79
2021/05/12 10:56:07;;;;;;;3.83;3.50;;;12.80;98.30;;;;;;5076716;28;21237;-79
2021/05/12 10:58:47;;;;;;;3.67;3.27;;;12.80;97.60;;;;;;5075716;28;21201;-79
2021/05/12 11:01:14;;;;;;;4.10;3.37;;;12.70;97.50;;;;;;5075901;28;20691;-80
2021/05/12 11:04:15;;;;;;;7.07;3.33;;;12.60;96.90;;;;;;5074546;28;21186;-79
2021/05/12 11:07:12;;;;;;;3.30;3.00;;;12.60;98.10;;;;;;5074763;28;20718;-79
2021/05/12 11:09:50;;;;;;;5.50;3.93;;;12.50;97.80;;;;;;5072867;28;21197;-79
2021/05/12 11:12:22;;;;;;;4.00;3.60;;;12.40;97.90;;;;;;5073115;28;20696;-79
2021/05/12 11:15:03;;;;;;;3.47;3.17;;;12.60;98.00;;;;;;5074236;28;20704;-79
2021/05/12 11:17:50;;;;;;;3.80;3.50;;;12.60;98.30;;;;;;5074785;28;20718;-81
2021/05/12 11:20:20;;;;;;;4.23;2.83;;;12.60;98.00;;;;;;5075030;28;20610;-80
2021/05/12 11:22:50;;;;;;;7.87;3.80;;;12.70;97.40;;;;;;5070912;28;20618;-79
2021/05/12 11:25:21;;;;;;;3.07;2.83;;;13.00;97.30;;;;;;5070431;28;20652;-80
2021/05/12 11:31:29;;;;;;;6.20;3.40;;;13.20;96.50;;;;;;5072571;28;20606;-79
2021/05/12 11:33:57;;;;;;;3.03;2.80;;;13.20;96.30;;;;;;5072552;28;20651;-79
2021/05/12 11:36:27;;;;;;;4.43;4.03;;;13.10;96.20;;;;;;5072522;28;20622;-79
2021/05/12 11:38:54;;;;;;;4.73;3.67;;;13.20;95.70;;;;;;5072705;28;21079;-79
2021/05/12 11:41:23;;;;;;;3.90;2.70;;;13.50;96.00;;;;;;5072637;28;20667;-79
2021/05/12 11:43:51;;;;;;;3.20;2.90;;;13.30;94.40;;;;;;5072875;28;20650;-80
2021/05/12 11:46:20;;;;;;;3.03;2.73;;;13.30;95.10;;;;;;5072176;28;20751;-80
2021/05/12 11:48:49;;;;;;;3.83;3.00;;;13.30;95.30;;;;;;5072120;28;20620;-79
2021/05/12 11:51:19;;;;;;;3.23;2.93;;;13.60;95.10;;;;;;5071813;28;20621;-79
2021/05/12 11:53:46;;;;;;;4.63;2.90;;;13.80;94.50;;;;;;5072588;28;20618;-80
2021/05/12 11:56:12;;;;;;;5.67;3.17;;;13.80;94.60;;;;;;5072283;28;20615;-80
2021/05/12 11:58:41;;;;;;;4.50;3.13;;;13.80;95.00;;;;;;5072007;28;20636;-79
2021/05/12 12:01:13;;;;;;;5.37;3.63;;;14.00;95.20;;;;;;5071166;28;21062;-79
2021/05/12 12:03:44;;;;;;;5.53;2.60;;;14.20;94.20;;;;;;5071190;28;20637;-79
2021/05/12 12:06:15;;;;;;;3.03;2.77;;;14.00;93.00;;;;;;5070779;28;20659;-80
2021/05/12 12:08:41;;;;;;;2.90;2.60;;;13.70;93.30;;;;;;5071842;28;20631;-80
2021/05/12 12:11:10;;;;;;;2.80;2.60;;;13.50;93.30;;;;;;5071699;28;20611;-80
2021/05/12 12:13:37;;;;;;;4.37;3.23;;;13.70;93.30;;;;;;5071914;28;20660;-80
2021/05/12 12:16:05;;;;;;;3.10;2.87;;;13.90;93.60;;;;;;5070585;28;20625;-79
2021/05/12 12:18:33;;;;;;;3.83;3.07;;;14.00;93.30;;;;;;5071578;28;21031;-79
2021/05/12 12:21:01;;;;;;;5.23;3.50;;;14.10;93.10;;;;;;5071574;28;20997;-80
2021/05/12 12:23:29;;;;;;;3.60;3.30;;;14.10;93.60;;;;;;5071391;28;20632;-80
2021/05/12 12:26:14;;;;;;;3.00;2.80;;;14.50;93.90;;;;;;5071291;28;20670;-80
2021/05/12 12:28:43;;;;;;;4.70;2.70;;;14.40;91.80;;;;;;5070849;28;20620;-80
2021/05/12 12:31:13;;;;;;;3.20;2.73;;;14.30;92.10;;;;;;5071139;28;20632;-79
2021/05/12 12:33:40;;;;;;;3.50;3.20;;;14.40;92.70;;;;;;5065633;28;20702;-80
2021/05/12 12:36:10;;;;;;;2.67;2.47;;;14.60;92.50;;;;;;5070865;28;20674;-79
2021/05/12 12:38:48;;;;;;;3.10;2.80;;;14.30;92.10;;;;;;5071050;28;20624;-80
2021/05/12 12:41:15;;;;;;;3.27;2.47;;;14.70;92.10;;;;;;5071459;28;20969;-80
2021/05/12 12:43:42;;;;;;;4.17;2.60;;;14.60;91.40;;;;;;5070163;28;20644;-80
2021/05/12 12:46:08;;;;;;;3.50;2.37;;;14.80;91.70;;;;;;5071149;28;20768;-80
2021/05/12 12:48:35;;;;;;;4.30;2.97;;;14.70;90.20;;;;;;5070550;28;20632;-79
2021/05/12 12:51:01;;;;;;;6.97;3.70;;;14.70;91.50;;;;;;5070796;28;21164;-79
2021/05/12 12:53:30;;;;;;;3.53;2.47;;;14.90;92.10;;;;;;5070637;28;20664;-79
2021/05/12 12:56:10;;;;;;;2.87;2.00;;;14.50;90.40;;;;;;5070746;28;21247;-80